Time;durP1;ratioP1;P1;durP2;ratioP2;P2;SDS_P1;SDS_P2;PMS_P1;PMS_P2;Temp;Humidity;BMP_temperature;BMP_pressure;BME280_temperature;BME280_humidity;BME280_pressure;Samples;Min_cycle;Max_cycle;Signal;HPM_P1;HPM_P2
2023/10/30 00:00:46;;;;;;;3.42;1.40;;;10.00;99.90;;;;;;4980310;28;89469;-33
2023/10/30 00:03:14;;;;;;;1.30;1.20;;;10.00;99.90;;;;;;4986771;28;89034;-37
2023/10/30 00:05:40;;;;;;;2.53;1.50;;;10.00;99.90;;;;;;4986248;28;90677;-36
2023/10/30 00:08:06;;;;;;;3.30;1.83;;;10.00;99.90;;;;;;4986021;28;89689;-33
2023/10/30 00:10:33;;;;;;;5.53;1.58;;;10.00;99.90;;;;;;4967979;28;89017;-36
2023/10/30 00:12:59;;;;;;;3.40;1.73;;;10.00;99.90;;;;;;4981419;28;89891;-34
2023/10/30 00:15:25;;;;;;;3.97;2.22;;;10.00;99.90;;;;;;4981015;28;90283;-33
2023/10/30 00:17:51;;;;;;;11.68;2.53;;;10.00;99.90;;;;;;4980186;28;90189;-34
2023/10/30 00:20:17;;;;;;;2.80;1.25;;;10.00;99.90;;;;;;4979670;28;89943;-36
2023/10/30 00:22:43;;;;;;;2.45;1.60;;;10.00;99.90;;;;;;4980254;28;88626;-34
2023/10/30 00:25:09;;;;;;;2.63;1.02;;;9.90;99.90;;;;;;4981228;28;89216;-37
2023/10/30 00:27:34;;;;;;;6.85;1.35;;;9.90;99.90;;;;;;4999634;28;89998;-34
2023/10/30 00:30:00;;;;;;;5.93;1.70;;;9.90;99.90;;;;;;4995620;28;89436;-35
2023/10/30 00:32:26;;;;;;;1.92;1.70;;;9.90;99.90;;;;;;4981841;28;89284;-35
2023/10/30 00:34:51;;;;;;;3.65;2.42;;;9.90;99.90;;;;;;4990610;28;90667;-36
2023/10/30 00:37:17;;;;;;;3.25;1.73;;;9.90;99.90;;;;;;4999256;28;90322;-36
2023/10/30 00:39:43;;;;;;;4.85;2.30;;;9.90;99.90;;;;;;4998781;28;89549;-35
2023/10/30 00:42:09;;;;;;;2.95;1.80;;;9.80;99.90;;;;;;4963829;28;89999;-33
2023/10/30 00:44:37;;;;;;;6.82;1.60;;;9.80;99.90;;;;;;4998806;28;90369;-32
2023/10/30 00:47:04;;;;;;;3.47;1.95;;;9.80;99.90;;;;;;4993334;28;88533;-36
2023/10/30 00:49:30;;;;;;;4.35;2.03;;;9.80;99.90;;;;;;4990977;28;90542;-35
2023/10/30 00:51:56;;;;;;;5.18;3.22;;;9.80;99.90;;;;;;4999482;28;88088;-35
2023/10/30 00:54:21;;;;;;;8.55;2.20;;;9.80;99.90;;;;;;4986543;28;89746;-32
2023/10/30 00:56:47;;;;;;;2.88;2.08;;;9.80;99.90;;;;;;4983701;28;89317;-37
2023/10/30 00:59:13;;;;;;;3.38;2.03;;;9.80;99.90;;;;;;4987163;28;89783;-33
2023/10/30 01:01:38;;;;;;;4.43;1.65;;;9.80;99.90;;;;;;4991086;28;89092;-35
2023/10/30 01:04:05;;;;;;;1.67;1.25;;;9.80;99.90;;;;;;4979408;28;90386;-34
2023/10/30 01:06:31;;;;;;;2.45;1.58;;;9.80;99.90;;;;;;4983728;28;89326;-33
2023/10/30 01:08:56;;;;;;;7.15;1.50;;;9.80;99.90;;;;;;4995985;28;90027;-37
2023/10/30 01:11:22;;;;;;;7.63;2.35;;;9.80;99.90;;;;;;4998652;28;89351;-33
2023/10/30 01:13:47;;;;;;;2.22;1.38;;;9.80;99.90;;;;;;4998078;28;91438;-36
2023/10/30 01:16:13;;;;;;;10.82;2.28;;;9.80;99.90;;;;;;4998415;28;89735;-34
2023/10/30 01:18:39;;;;;;;4.00;2.05;;;9.80;99.90;;;;;;4998340;28;89697;-34
2023/10/30 01:21:12;;;;;;;8.40;2.65;;;9.80;99.90;;;;;;4996992;28;89111;-34
2023/10/30 01:23:38;;;;;;;4.65;2.13;;;9.80;99.90;;;;;;4997587;28;91230;-32
2023/10/30 01:26:04;;;;;;;2.88;1.30;;;9.80;99.90;;;;;;4996454;28;89148;-37
2023/10/30 01:28:30;;;;;;;5.32;2.58;;;9.80;99.90;;;;;;4997331;28;89776;-34
2023/10/30 01:30:55;;;;;;;3.85;1.77;;;9.80;99.90;;;;;;4998675;28;90407;-33
2023/10/30 01:33:23;;;;;;;1.98;1.35;;;9.80;99.90;;;;;;4983514;28;90507;-34
2023/10/30 01:35:48;;;;;;;3.53;1.48;;;9.80;99.90;;;;;;4978177;28;89531;-33
2023/10/30 01:38:14;;;;;;;3.50;1.50;;;9.70;99.90;;;;;;4978329;28;89988;-36
2023/10/30 01:40:50;;;;;;;1.70;1.23;;;9.80;99.90;;;;;;4987099;28;88899;-36
2023/10/30 01:43:16;;;;;;;3.22;1.77;;;9.70;99.90;;;;;;4982690;28;90255;-35
2023/10/30 01:45:42;;;;;;;2.75;2.55;;;9.70;99.90;;;;;;4978846;28;89039;-36
2023/10/30 01:48:08;;;;;;;5.07;2.35;;;9.70;99.90;;;;;;4979618;28;90136;-34
2023/10/30 01:50:36;;;;;;;3.08;1.80;;;9.80;99.90;;;;;;4984404;28;90312;-37
2023/10/30 01:53:03;;;;;;;3.30;2.43;;;9.80;99.90;;;;;;4982711;28;89816;-34
2023/10/30 01:55:29;;;;;;;2.65;1.58;;;9.80;99.90;;;;;;4978828;28;90437;-32
2023/10/30 01:57:55;;;;;;;2.53;1.83;;;9.90;99.90;;;;;;4978356;28;89110;-34
2023/10/30 02:00:20;;;;;;;2.33;2.13;;;9.90;99.90;;;;;;4979502;28;89068;-32
2023/10/30 02:02:47;;;;;;;4.28;1.67;;;9.80;99.90;;;;;;4979206;28;90182;-33
2023/10/30 02:05:13;;;;;;;4.75;2.42;;;9.90;99.90;;;;;;4979919;28;90160;-38
2023/10/30 02:07:39;;;;;;;6.22;1.73;;;9.80;99.90;;;;;;4979665;28;90219;-32
2023/10/30 02:10:06;;;;;;;7.75;1.90;;;9.80;99.90;;;;;;4984535;28;87944;-35
2023/10/30 02:12:32;;;;;;;2.95;1.85;;;9.80;99.90;;;;;;4991899;28;90541;-36
2023/10/30 02:14:58;;;;;;;2.95;2.70;;;9.90;99.90;;;;;;4989014;28;89234;-34
2023/10/30 02:17:23;;;;;;;4.10;2.08;;;9.90;99.90;;;;;;4982768;28;88350;-33
2023/10/30 02:19:49;;;;;;;3.22;1.98;;;9.90;99.90;;;;;;4981828;28;90494;-34
2023/10/30 02:22:14;;;;;;;2.55;1.92;;;9.90;99.90;;;;;;4983421;28;90689;-34
2023/10/30 02:24:40;;;;;;;2.35;2.00;;;9.90;99.90;;;;;;4982937;28;89436;-34
2023/10/30 02:27:06;;;;;;;6.13;2.03;;;9.90;99.90;;;;;;4987045;28;89166;-32
2023/10/30 02:29:31;;;;;;;2.30;2.05;;;9.90;99.90;;;;;;5002177;28;90348;-33
2023/10/30 02:31:57;;;;;;;6.45;2.75;;;9.80;99.90;;;;;;5000554;28;89890;-33
2023/10/30 02:34:22;;;;;;;10.30;2.67;;;9.90;99.90;;;;;;4990921;28;89655;-34
2023/10/30 02:36:48;;;;;;;14.98;2.35;;;9.90;99.90;;;;;;4981009;28;89776;-35
2023/10/30 02:39:14;;;;;;;2.53;1.60;;;9.90;99.90;;;;;;4990160;28;88313;-33
2023/10/30 02:41:39;;;;;;;3.30;1.65;;;9.90;99.90;;;;;;5000604;28;91144;-32
2023/10/30 02:44:05;;;;;;;3.85;2.05;;;9.90;99.90;;;;;;4982842;28;91702;-33
2023/10/30 02:46:31;;;;;;;8.68;2.10;;;9.90;99.90;;;;;;4999018;28;91070;-37
2023/10/30 02:48:56;;;;;;;7.50;1.95;;;9.90;99.90;;;;;;5001560;28;89274;-32
2023/10/30 02:51:22;;;;;;;7.90;2.30;;;10.00;99.90;;;;;;4999540;28;90495;-34
2023/10/30 02:53:47;;;;;;;6.57;1.88;;;10.00;99.90;;;;;;4999889;28;88894;-35
2023/10/30 02:56:13;;;;;;;8.98;2.90;;;10.00;99.90;;;;;;4998773;28;90460;-33
2023/10/30 02:58:39;;;;;;;5.20;2.30;;;10.00;99.90;;;;;;5000646;28;89416;-37
2023/10/30 03:01:05;;;;;;;4.72;2.20;;;10.00;99.90;;;;;;4998877;28;89760;-35
2023/10/30 03:03:31;;;;;;;2.78;1.88;;;10.00;99.90;;;;;;4999287;28;89868;-33
2023/10/30 03:05:57;;;;;;;4.53;2.53;;;10.10;99.90;;;;;;4998610;28;89390;-34
2023/10/30 03:08:25;;;;;;;4.43;3.15;;;10.10;99.90;;;;;;5000060;28;89234;-32
2023/10/30 03:10:50;;;;;;;9.95;3.92;;;10.10;99.90;;;;;;4997900;28;88850;-34
2023/10/30 03:13:16;;;;;;;2.97;1.85;;;10.10;99.90;;;;;;4998943;28;89354;-36
2023/10/30 03:15:45;;;;;;;4.53;1.90;;;10.10;99.90;;;;;;4997388;28;90571;-34
2023/10/30 03:18:11;;;;;;;4.63;2.05;;;10.10;99.90;;;;;;4999795;28;89394;-34
2023/10/30 03:20:37;;;;;;;5.00;2.92;;;10.10;99.90;;;;;;4999421;28;90985;-34
2023/10/30 03:23:03;;;;;;;12.00;2.00;;;10.10;99.90;;;;;;5000219;28;89572;-33
2023/10/30 03:25:28;;;;;;;8.05;2.38;;;10.10;99.90;;;;;;4998684;28;89504;-37
2023/10/30 03:27:54;;;;;;;5.32;2.67;;;10.20;99.90;;;;;;4999888;28;88345;-32
2023/10/30 03:30:19;;;;;;;7.18;1.77;;;10.10;99.90;;;;;;4998201;28;90178;-33
2023/10/30 03:32:45;;;;;;;6.32;2.17;;;10.10;99.90;;;;;;4998601;28;89584;-34
2023/10/30 03:35:11;;;;;;;6.53;1.85;;;10.10;99.90;;;;;;4998166;28;90241;-33
2023/10/30 03:37:36;;;;;;;4.50;1.90;;;10.10;99.90;;;;;;4999706;28;87933;-36
2023/10/30 03:40:03;;;;;;;3.45;1.98;;;10.10;99.90;;;;;;4998922;28;90560;-34
2023/10/30 03:42:28;;;;;;;8.40;2.25;;;10.10;99.90;;;;;;4999855;28;89840;-34
2023/10/30 03:44:54;;;;;;;2.42;2.22;;;10.10;99.90;;;;;;4998229;28;89574;-35
2023/10/30 03:47:19;;;;;;;4.10;2.60;;;10.10;99.90;;;;;;4999286;28;88742;-34
2023/10/30 03:49:45;;;;;;;2.10;1.52;;;10.10;99.90;;;;;;4997029;28;90388;-33
2023/10/30 03:52:11;;;;;;;14.48;3.22;;;10.10;99.90;;;;;;4998784;28;91013;-35
2023/10/30 03:54:36;;;;;;;5.80;2.40;;;10.10;99.90;;;;;;4996929;28;88961;-33
2023/10/30 03:57:02;;;;;;;6.93;3.28;;;10.10;99.90;;;;;;5000740;28;87869;-32
2023/10/30 03:59:28;;;;;;;9.93;2.50;;;10.00;99.90;;;;;;4996947;28;90307;-33
2023/10/30 04:01:54;;;;;;;5.72;1.88;;;10.00;99.90;;;;;;4998741;28;89860;-35
2023/10/30 04:04:19;;;;;;;3.53;1.63;;;10.00;99.90;;;;;;4996675;28;89163;-34
2023/10/30 04:06:45;;;;;;;10.63;1.38;;;10.00;99.90;;;;;;4999327;28;89334;-36
2023/10/30 04:09:11;;;;;;;3.67;2.70;;;10.10;99.90;;;;;;4998442;28;90132;-35
2023/10/30 04:11:36;;;;;;;6.70;2.13;;;10.10;99.90;;;;;;4998362;28;89367;-35
2023/10/30 04:14:02;;;;;;;3.53;2.22;;;10.00;99.90;;;;;;4990726;28;90815;-33
2023/10/30 04:16:28;;;;;;;8.88;3.13;;;10.00;99.90;;;;;;4994846;28;89170;-33
2023/10/30 04:18:54;;;;;;;5.68;3.03;;;10.00;99.90;;;;;;4991417;28;90394;-34
2023/10/30 04:21:20;;;;;;;3.42;2.50;;;10.00;99.90;;;;;;4983221;28;89965;-35
2023/10/30 04:23:45;;;;;;;2.63;1.58;;;10.00;99.90;;;;;;4998748;28;90017;-36
2023/10/30 04:26:11;;;;;;;9.82;2.00;;;10.00;99.90;;;;;;4984706;28;88178;-33
2023/10/30 04:28:37;;;;;;;3.05;2.30;;;10.00;99.90;;;;;;4982154;28;90328;-32
2023/10/30 04:31:06;;;;;;;6.55;2.30;;;10.00;99.90;;;;;;4999339;28;89709;-37
2023/10/30 04:33:32;;;;;;;9.15;3.63;;;10.00;99.90;;;;;;4999576;28;88358;-34
2023/10/30 04:36:04;;;;;;;3.53;1.63;;;10.00;99.90;;;;;;4998427;28;90030;-33
2023/10/30 04:38:31;;;;;;;3.03;1.95;;;10.00;99.90;;;;;;4981298;28;89302;-32
2023/10/30 04:40:57;;;;;;;3.83;1.48;;;10.00;99.90;;;;;;4999091;28;89249;-34
2023/10/30 04:43:23;;;;;;;8.98;2.17;;;10.00;99.90;;;;;;4998692;28;89260;-36
2023/10/30 04:45:48;;;;;;;9.52;2.35;;;10.00;99.90;;;;;;4999430;28;90820;-33
2023/10/30 04:48:15;;;;;;;5.53;1.45;;;9.90;99.90;;;;;;4997419;28;90383;-34
2023/10/30 04:50:41;;;;;;;8.52;2.95;;;9.90;99.90;;;;;;4998144;28;90198;-35
2023/10/30 04:53:07;;;;;;;7.45;2.60;;;9.90;99.90;;;;;;4994008;28;89413;-36
2023/10/30 04:55:34;;;;;;;6.85;2.22;;;9.90;99.90;;;;;;4989533;28;89469;-36
2023/10/30 04:58:00;;;;;;;5.50;2.87;;;9.80;99.90;;;;;;4998498;28;89518;-34
2023/10/30 05:00:25;;;;;;;6.07;3.10;;;9.90;99.90;;;;;;4980149;28;89651;-34
2023/10/30 05:02:51;;;;;;;4.97;1.48;;;9.90;99.90;;;;;;4998377;28;89643;-34
2023/10/30 05:05:17;;;;;;;3.70;2.20;;;9.80;99.90;;;;;;4999726;28;89327;-33
2023/10/30 05:07:44;;;;;;;5.47;2.15;;;9.80;99.90;;;;;;4997810;28;89827;-36
2023/10/30 05:10:11;;;;;;;9.07;2.28;;;9.80;99.90;;;;;;4998478;28;89676;-34
2023/10/30 05:12:37;;;;;;;4.38;2.67;;;9.80;99.90;;;;;;4998686;28;89452;-36
2023/10/30 05:15:03;;;;;;;4.55;2.03;;;9.80;99.90;;;;;;4979588;28;88261;-35
2023/10/30 05:17:28;;;;;;;2.60;1.80;;;9.70;99.90;;;;;;4998823;28;91627;-34
2023/10/30 05:19:54;;;;;;;3.60;1.88;;;9.70;99.90;;;;;;4964610;28;89129;-33
2023/10/30 05:22:20;;;;;;;7.85;2.85;;;9.70;99.90;;;;;;4980338;28;89875;-34
2023/10/30 05:24:45;;;;;;;2.80;1.67;;;9.60;99.90;;;;;;4995860;28;89364;-33
2023/10/30 05:27:11;;;;;;;7.50;2.13;;;9.60;99.90;;;;;;4998639;28;90177;-37
2023/10/30 05:29:37;;;;;;;7.80;1.90;;;9.60;99.90;;;;;;4991605;28;89261;-33
2023/10/30 05:32:06;;;;;;;4.65;2.13;;;9.60;99.90;;;;;;4993582;28;89052;-32
2023/10/30 05:34:34;;;;;;;13.07;2.17;;;9.60;99.90;;;;;;4989325;28;88145;-35
2023/10/30 05:37:01;;;;;;;5.80;2.30;;;9.60;99.90;;;;;;4997485;28;90168;-37
2023/10/30 05:39:27;;;;;;;8.95;2.22;;;9.60;99.90;;;;;;4998378;28;89277;-32
2023/10/30 05:41:53;;;;;;;6.38;1.75;;;9.50;99.90;;;;;;4997395;28;89846;-34
2023/10/30 05:44:18;;;;;;;5.05;2.42;;;9.50;99.90;;;;;;4998134;28;90727;-36
2023/10/30 05:46:44;;;;;;;2.60;1.95;;;9.50;99.90;;;;;;4997315;28;90008;-34
2023/10/30 05:49:10;;;;;;;9.40;3.50;;;9.50;99.90;;;;;;4997625;28;89652;-36
2023/10/30 05:51:35;;;;;;;6.05;3.00;;;9.50;99.90;;;;;;4997067;28;90027;-33
2023/10/30 05:54:01;;;;;;;5.72;1.92;;;9.50;99.90;;;;;;5046130;22;88875;-35
2023/10/30 05:56:26;;;;;;;10.25;2.40;;;9.60;99.90;;;;;;4998268;28;90339;-34
2023/10/30 05:58:53;;;;;;;2.08;1.52;;;9.50;99.90;;;;;;4999542;28;88663;-34
2023/10/30 06:01:19;;;;;;;6.65;3.72;;;9.50;99.90;;;;;;4997583;28;89897;-37
2023/10/30 06:03:44;;;;;;;7.50;3.25;;;9.50;99.90;;;;;;4998321;28;88747;-36
2023/10/30 06:06:10;;;;;;;5.55;1.85;;;9.50;99.90;;;;;;4995936;28;90422;-31
2023/10/30 06:08:36;;;;;;;6.93;1.77;;;9.60;99.90;;;;;;4997548;28;89584;-33
2023/10/30 06:11:02;;;;;;;8.35;3.08;;;9.50;99.90;;;;;;4997995;28;90020;-34
2023/10/30 06:13:27;;;;;;;6.68;2.17;;;9.60;99.90;;;;;;4998111;28;88443;-34
2023/10/30 06:15:55;;;;;;;8.05;2.17;;;9.60;99.90;;;;;;4997691;28;89584;-33
2023/10/30 06:18:21;;;;;;;8.83;2.57;;;9.60;99.90;;;;;;4997316;28;90627;-34
2023/10/30 06:20:47;;;;;;;3.55;2.63;;;9.60;99.90;;;;;;4998520;28;89075;-36
2023/10/30 06:23:12;;;;;;;4.30;2.15;;;9.60;99.90;;;;;;4992300;28;89672;-33
2023/10/30 06:25:38;;;;;;;7.88;3.15;;;9.70;99.90;;;;;;4996915;28;89942;-34
2023/10/30 06:28:04;;;;;;;12.70;3.25;;;9.60;99.90;;;;;;4997712;28;89883;-33
2023/10/30 06:30:29;;;;;;;4.70;2.58;;;9.60;99.90;;;;;;4997154;28;89797;-36
2023/10/30 06:32:55;;;;;;;2.78;1.50;;;9.70;99.90;;;;;;4997747;28;88736;-34
2023/10/30 06:35:21;;;;;;;2.17;1.98;;;9.70;99.90;;;;;;4996602;28;92052;-34
2023/10/30 06:37:46;;;;;;;3.47;1.65;;;9.70;99.90;;;;;;4998030;28;89618;-34
2023/10/30 06:40:12;;;;;;;5.15;1.95;;;9.70;99.90;;;;;;4996883;28;90884;-34
2023/10/30 06:42:38;;;;;;;13.23;2.75;;;9.80;99.90;;;;;;4997221;28;89356;-35
2023/10/30 06:45:04;;;;;;;4.85;2.13;;;9.80;99.90;;;;;;4996712;28;91141;-34
2023/10/30 06:47:29;;;;;;;11.13;2.65;;;9.80;99.90;;;;;;4997915;28;89848;-33
2023/10/30 06:49:55;;;;;;;7.93;2.45;;;9.80;99.90;;;;;;4995709;28;89433;-36
2023/10/30 06:52:20;;;;;;;3.60;2.08;;;9.80;99.90;;;;;;4992992;28;88995;-34
2023/10/30 06:54:46;;;;;;;3.70;1.90;;;9.90;99.90;;;;;;4993728;28;88898;-38
2023/10/30 06:57:12;;;;;;;5.43;2.38;;;9.90;99.90;;;;;;4995704;28;89737;-36
2023/10/30 06:59:37;;;;;;;2.55;1.23;;;9.90;99.90;;;;;;4993935;28;89475;-32
2023/10/30 07:02:03;;;;;;;1.70;1.38;;;9.90;99.90;;;;;;4994528;28;89485;-37
2023/10/30 07:04:30;;;;;;;3.28;1.90;;;9.90;99.90;;;;;;4994286;28;90935;-36
2023/10/30 07:06:55;;;;;;;3.45;2.00;;;9.90;99.90;;;;;;4995853;28;88458;-37
2023/10/30 07:09:21;;;;;;;8.82;2.35;;;10.00;99.90;;;;;;4998014;28;89494;-33
2023/10/30 07:11:46;;;;;;;5.53;2.42;;;10.00;99.90;;;;;;4979093;28;89254;-33
2023/10/30 07:14:13;;;;;;;4.70;2.72;;;10.10;99.90;;;;;;4997291;28;88777;-32
2023/10/30 07:16:40;;;;;;;4.78;2.08;;;10.10;99.90;;;;;;4978963;28;89212;-35
2023/10/30 07:19:05;;;;;;;4.55;1.85;;;10.10;99.90;;;;;;4997267;28;89449;-33
2023/10/30 07:21:31;;;;;;;12.38;3.63;;;10.20;99.90;;;;;;4997632;28;87890;-34
2023/10/30 07:23:57;;;;;;;5.57;3.03;;;10.20;99.90;;;;;;4996747;28;91774;-34
2023/10/30 07:26:24;;;;;;;7.55;2.50;;;10.20;99.90;;;;;;4992436;28;88559;-37
2023/10/30 07:28:49;;;;;;;2.53;1.83;;;10.30;99.90;;;;;;4996902;28;89019;-33
2023/10/30 07:31:19;;;;;;;11.30;3.15;;;10.30;99.90;;;;;;4997559;28;89337;-34
2023/10/30 07:33:45;;;;;;;7.57;3.00;;;10.30;99.90;;;;;;4996078;28;90482;-35
2023/10/30 07:36:10;;;;;;;4.57;2.08;;;10.40;99.90;;;;;;4997743;28;89200;-33
2023/10/30 07:38:36;;;;;;;6.18;2.35;;;10.40;99.90;;;;;;4996797;28;89584;-33
2023/10/30 07:41:02;;;;;;;12.43;2.28;;;10.40;99.90;;;;;;4998813;28;88756;-35
2023/10/30 07:43:28;;;;;;;6.60;3.00;;;10.50;99.90;;;;;;4997065;28;91750;-34
2023/10/30 07:45:54;;;;;;;5.25;1.65;;;10.50;99.90;;;;;;4997808;28;90185;-31
2023/10/30 07:48:20;;;;;;;7.03;2.58;;;10.60;99.90;;;;;;4998017;28;89453;-34
2023/10/30 07:50:47;;;;;;;4.07;2.25;;;10.60;99.90;;;;;;4997631;28;89142;-34
2023/10/30 07:53:14;;;;;;;4.35;2.40;;;10.70;99.90;;;;;;4997609;28;90392;-36
2023/10/30 07:55:40;;;;;;;8.88;1.90;;;10.70;99.90;;;;;;4997337;28;90436;-33
2023/10/30 07:58:06;;;;;;;5.95;2.03;;;10.80;99.90;;;;;;4996433;28;89007;-34
2023/10/30 08:00:32;;;;;;;14.10;4.38;;;10.80;99.90;;;;;;4998610;28;89781;-32
2023/10/30 08:02:59;;;;;;;9.00;2.53;;;10.90;99.90;;;;;;4996707;28;90387;-35
2023/10/30 08:05:28;;;;;;;7.80;2.17;;;10.90;99.90;;;;;;4996020;28;89879;-34
2023/10/30 08:07:53;;;;;;;;;;;11.00;99.90;;;;;;4998287;28;89888;-34
2023/10/30 08:10:19;;;;;;;7.57;2.70;;;11.10;99.90;;;;;;4998901;28;88208;-35
2023/10/30 08:12:45;;;;;;;10.23;3.03;;;11.20;99.90;;;;;;4997136;28;92209;-35
2023/10/30 08:15:10;;;;;;;7.43;2.15;;;11.30;99.90;;;;;;4997558;28;89733;-34
2023/10/30 08:17:36;;;;;;;6.00;2.42;;;11.30;99.90;;;;;;4996486;28;90058;-32
2023/10/30 08:20:03;;;;;;;5.90;3.05;;;11.40;99.90;;;;;;4996142;28;89617;-34
2023/10/30 08:22:29;;;;;;;8.40;3.63;;;11.40;99.90;;;;;;4997719;28;90456;-34
2023/10/30 08:24:55;;;;;;;5.97;2.00;;;11.50;99.90;;;;;;4997196;28;91559;-33
2023/10/30 08:27:21;;;;;;;7.45;2.17;;;11.60;99.90;;;;;;4995479;28;90035;-32
2023/10/30 08:29:47;;;;;;;6.45;1.98;;;11.70;99.90;;;;;;4996773;28;90085;-33
2023/10/30 08:32:13;;;;;;;4.43;2.72;;;11.70;99.90;;;;;;4996013;28;90368;-33
2023/10/30 08:34:39;;;;;;;4.65;2.47;;;11.80;99.90;;;;;;4997130;28;89573;-34
2023/10/30 08:37:05;;;;;;;6.78;2.22;;;11.80;99.90;;;;;;4994454;28;89531;-34
2023/10/30 08:39:30;;;;;;;7.28;2.65;;;11.90;99.90;;;;;;4979030;28;88185;-33
2023/10/30 08:41:56;;;;;;;3.38;1.88;;;11.90;99.90;;;;;;4995746;28;90341;-34
2023/10/30 08:44:22;;;;;;;5.70;2.50;;;12.00;99.90;;;;;;4996850;28;89314;-34
2023/10/30 08:46:47;;;;;;;3.28;1.92;;;12.00;99.90;;;;;;4996958;28;89992;-34
2023/10/30 08:49:13;;;;;;;9.00;3.55;;;12.10;99.90;;;;;;4996692;28;88128;-31
2023/10/30 08:51:40;;;;;;;8.20;3.38;;;12.10;99.90;;;;;;4995658;28;90025;-34
2023/10/30 08:54:06;;;;;;;9.52;3.08;;;12.20;99.90;;;;;;4996474;28;89396;-33
2023/10/30 08:56:32;;;;;;;8.43;3.28;;;12.20;99.90;;;;;;4995476;28;89229;-35
2023/10/30 08:58:57;;;;;;;7.82;1.75;;;12.20;99.90;;;;;;4997021;28;89409;-35
2023/10/30 09:01:23;;;;;;;10.75;2.65;;;12.30;99.90;;;;;;4996544;28;90246;-34
2023/10/30 09:03:49;;;;;;;4.50;2.45;;;12.30;99.90;;;;;;4995487;28;89632;-35
2023/10/30 09:06:14;;;;;;;7.25;3.42;;;12.40;99.90;;;;;;4997348;28;89591;-32
2023/10/30 09:08:40;;;;;;;12.13;2.13;;;12.40;99.90;;;;;;4996824;28;88459;-33
2023/10/30 09:11:06;;;;;;;12.13;3.58;;;12.50;99.90;;;;;;4978352;28;90115;-34
2023/10/30 09:13:31;;;;;;;5.82;3.00;;;12.50;99.90;;;;;;4996438;28;91596;-33
2023/10/30 09:15:57;;;;;;;7.68;2.10;;;12.50;99.90;;;;;;4996147;28;90567;-34
2023/10/30 09:18:22;;;;;;;4.63;1.88;;;12.60;99.90;;;;;;4996081;28;88143;-35
2023/10/30 09:20:48;;;;;;;10.43;2.22;;;12.60;99.90;;;;;;4995729;28;90914;-33
2023/10/30 09:23:14;;;;;;;3.58;2.22;;;12.70;99.90;;;;;;4995955;28;89684;-35
2023/10/30 09:25:39;;;;;;;6.45;2.45;;;12.70;99.90;;;;;;4995814;28;89677;-35
2023/10/30 09:28:05;;;;;;;4.72;1.95;;;12.70;99.90;;;;;;4977261;28;88499;-35
2023/10/30 09:30:30;;;;;;;8.60;2.85;;;12.70;99.90;;;;;;4995382;28;90127;-34
2023/10/30 09:32:59;;;;;;;5.72;2.33;;;12.70;99.90;;;;;;4996587;28;89732;-34
2023/10/30 09:35:29;;;;;;;7.90;4.07;;;12.80;99.90;;;;;;4995022;28;88540;-32
2023/10/30 09:37:56;;;;;;;4.72;1.83;;;12.80;99.90;;;;;;4996761;28;88576;-33
2023/10/30 09:40:25;;;;;;;5.35;2.05;;;12.70;99.90;;;;;;4996159;28;91029;-34
2023/10/30 09:42:52;;;;;;;4.78;2.45;;;12.70;99.90;;;;;;4995522;28;90977;-34
2023/10/30 09:45:22;;;;;;;4.60;2.83;;;12.60;99.90;;;;;;4994901;28;89606;-35
2023/10/30 09:47:56;;;;;;;5.32;2.08;;;12.70;99.90;;;;;;4995067;28;89594;-35
2023/10/30 09:50:24;;;;;;;6.53;2.72;;;12.70;99.90;;;;;;4995865;28;90820;-35
2023/10/30 09:52:53;;;;;;;7.90;2.60;;;12.70;99.90;;;;;;4977707;28;90454;-34
2023/10/30 09:55:20;;;;;;;6.15;2.05;;;12.70;99.90;;;;;;4995761;28;89047;-33
2023/10/30 09:57:47;;;;;;;9.25;3.80;;;12.80;99.90;;;;;;4989243;28;89757;-34
2023/10/30 10:00:14;;;;;;;3.87;2.13;;;12.70;99.90;;;;;;4996323;28;89693;-36
2023/10/30 10:02:44;;;;;;;16.33;3.42;;;12.70;99.90;;;;;;4996042;28;90656;-32
2023/10/30 10:05:12;;;;;;;5.20;2.65;;;12.70;99.90;;;;;;4995684;28;90643;-34
2023/10/30 10:07:38;;;;;;;5.55;3.13;;;12.70;99.90;;;;;;4977783;28;89986;-34
2023/10/30 10:10:06;;;;;;;7.63;2.35;;;12.70;99.90;;;;;;4995338;28;90727;-33
2023/10/30 10:12:33;;;;;;;10.68;2.95;;;12.70;99.90;;;;;;4994630;28;90278;-32
2023/10/30 10:14:59;;;;;;;3.33;2.03;;;12.70;99.90;;;;;;4994888;28;88762;-35
2023/10/30 10:17:25;;;;;;;6.75;2.88;;;12.70;99.90;;;;;;4995804;28;88941;-33
2023/10/30 10:19:51;;;;;;;14.05;3.22;;;12.80;99.90;;;;;;4994902;28;90393;-34
2023/10/30 10:22:32;;;;;;;9.10;3.47;;;12.80;99.90;;;;;;4994277;28;89493;-34
2023/10/30 10:25:00;;;;;;;4.30;2.05;;;12.90;99.90;;;;;;4995734;28;89571;-32
2023/10/30 10:27:27;;;;;;;8.50;2.40;;;12.90;99.90;;;;;;4978441;28;89193;-33
2023/10/30 10:29:58;;;;;;;5.78;1.77;;;13.00;99.90;;;;;;4992146;28;90828;-35
2023/10/30 10:32:28;;;;;;;14.07;2.28;;;13.00;99.90;;;;;;4975817;28;89231;-35
2023/10/30 10:34:57;;;;;;;5.15;2.88;;;13.10;99.90;;;;;;4995409;28;90668;-33
2023/10/30 10:37:23;;;;;;;33.47;4.00;;;13.20;99.90;;;;;;4995091;28;88954;-33
2023/10/30 10:39:51;;;;;;;20.45;4.05;;;13.30;99.90;;;;;;4993778;28;89893;-35
2023/10/30 10:42:18;;;;;;;3.10;2.38;;;13.30;99.90;;;;;;4997884;28;89396;-34
2023/10/30 10:44:45;;;;;;;6.28;2.47;;;13.30;99.90;;;;;;4997622;28;89893;-34
2023/10/30 10:47:11;;;;;;;8.13;2.70;;;13.40;99.90;;;;;;4998673;28;88131;-35
2023/10/30 10:49:37;;;;;;;11.02;3.05;;;13.50;99.90;;;;;;4997540;28;90050;-35
2023/10/30 10:52:07;;;;;;;10.02;2.60;;;13.50;99.90;;;;;;4999894;28;89867;-33
2023/10/30 10:54:38;;;;;;;6.10;1.92;;;13.70;99.90;;;;;;4997317;28;89751;-36
2023/10/30 10:57:05;;;;;;;10.70;3.30;;;13.70;99.90;;;;;;4999298;28;88865;-35
2023/10/30 10:59:34;;;;;;;6.57;2.17;;;13.70;99.90;;;;;;4998254;28;90856;-34
2023/10/30 11:02:08;;;;;;;5.57;3.33;;;13.70;99.90;;;;;;4997572;28;88675;-35
2023/10/30 11:04:34;;;;;;;10.98;2.40;;;13.70;99.90;;;;;;4997861;28;90706;-35
2023/10/30 11:07:06;;;;;;;6.93;3.55;;;13.60;99.90;;;;;;4998876;28;88692;-34
2023/10/30 11:09:50;;;;;;;5.75;3.80;;;13.60;99.90;;;;;;4997783;28;90016;-33
2023/10/30 11:12:19;;;;;;;9.10;2.15;;;13.70;99.90;;;;;;4997482;28;90546;-34
2023/10/30 11:15:09;;;;;;;6.28;2.17;;;13.70;99.90;;;;;;4997516;28;89240;-33
2023/10/30 11:17:36;;;;;;;2.53;2.33;;;13.70;99.90;;;;;;4996216;28;88536;-35
2023/10/30 11:20:03;;;;;;;6.53;2.97;;;13.70;99.90;;;;;;4997478;28;91678;-34
2023/10/30 11:22:43;;;;;;;6.75;2.33;;;13.60;99.90;;;;;;4998119;28;89367;-35
2023/10/30 11:25:41;;;;;;;11.32;3.50;;;13.70;99.90;;;;;;4996954;28;89073;-35
2023/10/30 11:28:07;;;;;;;10.57;3.00;;;13.70;99.90;;;;;;4990147;28;89341;-33
2023/10/30 11:30:41;;;;;;;6.72;3.03;;;13.70;99.90;;;;;;4997155;28;90730;-35
2023/10/30 11:33:24;;;;;;;9.80;3.60;;;13.80;99.90;;;;;;4997115;28;90078;-35
2023/10/30 11:36:17;;;;;;;8.65;2.58;;;13.80;99.90;;;;;;4987156;28;89606;-33
2023/10/30 11:38:51;;;;;;;5.18;2.80;;;13.70;99.90;;;;;;4976368;28;91190;-35
2023/10/30 11:41:17;;;;;;;13.25;3.58;;;13.70;99.90;;;;;;4996777;28;90681;-33
2023/10/30 11:43:44;;;;;;;11.05;2.60;;;13.70;99.90;;;;;;4996937;28;88795;-33
2023/10/30 11:46:13;;;;;;;13.45;2.55;;;13.70;99.90;;;;;;4996962;28;88745;-34
2023/10/30 11:48:40;;;;;;;11.65;3.67;;;13.70;99.90;;;;;;4997593;28;88345;-32
2023/10/30 11:51:07;;;;;;;12.15;4.22;;;13.70;99.90;;;;;;4997898;28;90268;-34
2023/10/30 11:53:33;;;;;;;13.00;3.53;;;13.80;99.90;;;;;;4996431;28;89523;-35
2023/10/30 11:55:59;;;;;;;4.75;2.67;;;13.90;99.90;;;;;;4996277;28;88964;-32
2023/10/30 11:58:26;;;;;;;8.57;3.47;;;14.00;99.90;;;;;;4998712;28;89529;-34
2023/10/30 12:00:51;;;;;;;6.60;3.03;;;14.10;99.90;;;;;;4996876;28;89709;-32
2023/10/30 12:03:17;;;;;;;7.20;2.35;;;14.10;99.90;;;;;;4996548;28;89451;-32
2023/10/30 12:05:44;;;;;;;8.98;3.60;;;14.10;99.90;;;;;;4996920;28;90085;-35
2023/10/30 12:08:10;;;;;;;16.38;4.43;;;14.20;99.90;;;;;;4997631;28;89462;-32
2023/10/30 12:10:37;;;;;;;9.18;4.05;;;14.20;99.90;;;;;;4997018;28;89976;-35
2023/10/30 12:13:04;;;;;;;6.20;3.00;;;14.30;99.90;;;;;;4996154;28;89519;-35
2023/10/30 12:15:30;;;;;;;11.50;3.47;;;14.30;99.90;;;;;;4996847;28;89925;-35
2023/10/30 12:17:56;;;;;;;9.07;2.78;;;14.30;99.90;;;;;;4996186;28;88389;-35
2023/10/30 12:20:22;;;;;;;6.32;2.33;;;14.30;99.90;;;;;;4997441;28;89458;-35
2023/10/30 12:22:47;;;;;;;8.88;3.45;;;14.30;99.90;;;;;;4997583;28;89900;-33
2023/10/30 12:25:16;;;;;;;10.02;2.92;;;14.30;99.90;;;;;;4996248;28;89648;-33
2023/10/30 12:27:45;;;;;;;7.07;2.78;;;14.40;99.90;;;;;;4996365;28;88359;-33
2023/10/30 12:30:18;;;;;;;9.50;2.70;;;14.40;99.90;;;;;;4983261;28;90137;-32
2023/10/30 12:32:53;;;;;;;4.90;2.25;;;14.40;99.90;;;;;;4997009;28;88167;-33
2023/10/30 12:35:19;;;;;;;9.30;3.00;;;14.50;99.90;;;;;;4996272;28;89855;-35
2023/10/30 12:37:45;;;;;;;7.55;2.72;;;14.50;99.90;;;;;;4996790;28;90198;-34
2023/10/30 12:40:12;;;;;;;6.22;3.08;;;14.50;99.90;;;;;;4996651;28;89316;-33
2023/10/30 12:42:43;;;;;;;5.53;2.47;;;14.60;99.90;;;;;;4996820;28;89675;-34
2023/10/30 12:45:15;;;;;;;15.65;3.75;;;14.60;99.90;;;;;;4996324;28;89116;-34
2023/10/30 12:47:59;;;;;;;8.23;2.75;;;14.60;99.90;;;;;;4996259;28;87996;-33